メインページ
METAR-TAF:

METAR-TAF

空港 :

オタワ, オンタリオ州, カナダ

オタワ・マクドナルド・カルティエ国際空港

緯度: 45-19N, 経度: 075-40W, 海抜: 116m

現時点の気象観測

当レポートは33分前の16:00(UTC)に作成
西/北西の風 14kt
気温 -1°C
湿度 80%
気圧 1017 hPa
視程: 24.1km
高度2000ftの千切れ雲あり
高度5500ftの千切れ雲あり

METAR: CYOW 221600Z 30014KT 15SM BKN020 BKN055 M01/M04 A3002 RMK SC5SC2 SLP172

時間: 11:33 (16:33 UTC)

予報

当レポートは1時間53分前の14:40(UTC)に作成
予報は22日の 15時(UTC)から 23日の 12時(UTC)まで有効
北西の風 12kt
視程: 10km
高度2500ftの千切れ雲あり
高度7000ftの千切れ雲あり
22日の 15時(UTC)から 22日の 17時(UTC)まで一時的に
視程: 4.8km
高度2000ftの千切れ雲あり
高度7000ftの千切れ雲あり
小雪
22日の 1700時(UTC)から
北西の風 15kt
視程: 10km
高度3000ftの千切れ雲あり
22日の 17時(UTC)から 22日の 19時(UTC)まで一時的に
高度2000ftの千切れ雲あり
22日の 2300時(UTC)から
北西の風 10kt
視程: 10km
高度3000ftの雲は散在している
23日の 05時(UTC)から 23日の 07時(UTC)まで徐々に
西/南西の風 5kt

TAF: CYOW 221440Z 2215/2312 31012KT P6SM BKN025 BKN070 TEMPO 2215/2217 3SM -SN BKN020 BKN070 FM221700 31015KT P6SM BKN030 TEMPO 2217/2219 BKN020 FM222300 31010KT P6SM SCT030 BECMG 2305/2307 24005KT RMK NXT FCST BY 221800Z

4,000以上の空港の気象観測と天気予報(METAR報とTAF報)

利用可能な観測所は地図上に黄色い丸と赤い丸で示す。

丸の上にカーソルを重ねると観測所名を参照できる。

次にクリックすると気象観測と天気予報を参照できる。

マップの切り替え:黒色「×」印の緑ボタンをクリックして拡大、「-」印の緑ボタンをクリックして縮小、緑色の三角印をクリックして隣りの地図に切り替え


METAR-TAF: